Time;durP1;ratioP1;P1;durP2;ratioP2;P2;SDS_P1;SDS_P2;PMS_P1;PMS_P2;Temp;Humidity;BMP_temperature;BMP_pressure;BME280_temperature;BME280_humidity;BME280_pressure;Samples;Min_cycle;Max_cycle;Signal;HPM_P1;HPM_P2
2022/11/25 04:01:43;;;;;;;0.60;0.60;;;6.60;87.20;;;;;;5575977;23;20505;-71
2022/11/25 04:04:09;;;;;;;0.60;0.60;;;6.60;87.20;;;;;;4975464;28;20466;-72
2022/11/25 04:06:38;;;;;;;0.73;0.73;;;6.50;86.80;;;;;;4974579;28;20442;-72
2022/11/25 04:09:04;;;;;;;0.70;0.70;;;6.00;84.90;;;;;;4975119;28;20949;-72
2022/11/25 04:14:12;;;;;;;0.80;0.80;;;5.90;84.70;;;;;;4973992;28;20478;-72
2022/11/25 04:16:38;;;;;;;0.60;0.60;;;6.00;84.80;;;;;;4976598;28;20461;-72
2022/11/25 04:19:07;;;;;;;0.60;0.60;;;5.90;84.60;;;;;;4975230;28;20446;-72
2022/11/25 04:21:33;;;;;;;0.77;0.77;;;5.90;84.80;;;;;;4975080;28;20470;-72
2022/11/25 04:24:00;;;;;;;0.60;0.60;;;6.00;84.50;;;;;;4975118;28;20452;-71
2022/11/25 04:26:27;;;;;;;0.70;0.70;;;6.00;84.10;;;;;;4975069;28;20458;-72
2022/11/25 04:28:53;;;;;;;0.70;0.70;;;5.90;83.80;;;;;;4975072;28;20446;-72
2022/11/25 04:31:20;;;;;;;0.70;0.60;;;5.90;84.00;;;;;;4974645;28;20846;-73
2022/11/25 04:33:47;;;;;;;0.80;0.60;;;5.70;83.70;;;;;;4974882;28;20485;-72
2022/11/25 04:36:15;;;;;;;0.60;0.60;;;5.50;84.20;;;;;;4974886;28;20450;-72
2022/11/25 04:38:41;;;;;;;0.60;0.60;;;5.60;84.20;;;;;;4974933;28;20457;-72
2022/11/25 04:41:08;;;;;;;0.70;0.70;;;5.60;84.10;;;;;;4974784;28;20470;-73
2022/11/25 04:43:35;;;;;;;0.80;0.80;;;5.70;83.60;;;;;;4974829;28;20454;-72
2022/11/25 04:46:02;;;;;;;0.70;0.70;;;5.70;83.70;;;;;;4974810;28;20446;-73
2022/11/25 04:48:29;;;;;;;0.70;0.70;;;5.80;83.60;;;;;;4974770;28;20473;-72
2022/11/25 04:50:56;;;;;;;0.70;0.70;;;5.80;83.50;;;;;;4974696;28;20470;-72
2022/11/25 04:53:24;;;;;;;0.70;0.70;;;5.70;83.80;;;;;;4974433;28;20946;-72
2022/11/25 04:55:51;;;;;;;0.80;0.70;;;5.50;84.50;;;;;;4974637;28;20513;-71
2022/11/25 04:59:38;;;;;;;0.60;0.60;;;5.30;85.70;;;;;;4974660;28;20451;-72
2022/11/25 05:01:03;;;;;;;0.70;0.70;;;5.00;86.50;;;;;;4974019;28;20896;-72
2022/11/25 05:03:30;;;;;;;0.67;0.67;;;4.90;87.20;;;;;;4974639;28;20431;-72
2022/11/25 05:05:56;;;;;;;0.80;0.80;;;5.10;86.60;;;;;;4974576;28;20218;-72
2022/11/25 05:08:24;;;;;;;0.60;0.60;;;5.20;86.10;;;;;;4974554;28;20450;-72
2022/11/25 05:10:51;;;;;;;0.73;0.73;;;5.30;85.40;;;;;;4974468;28;20470;-72
2022/11/25 05:13:18;;;;;;;0.60;0.60;;;5.40;85.00;;;;;;4974504;28;20450;-72
2022/11/25 05:15:44;;;;;;;0.73;0.70;;;5.40;84.80;;;;;;4974412;28;20478;-73
2022/11/25 05:18:11;;;;;;;0.70;0.70;;;5.40;84.40;;;;;;4976672;28;20457;-72
2022/11/25 05:20:38;;;;;;;0.80;0.80;;;5.40;84.40;;;;;;4979099;28;20446;-73
2022/11/25 05:23:04;;;;;;;0.70;0.70;;;5.40;84.10;;;;;;4978386;28;20461;-72
2022/11/25 05:25:32;;;;;;;0.70;0.70;;;5.40;83.90;;;;;;4978361;28;20441;-72
2022/11/25 05:28:00;;;;;;;0.67;0.67;;;5.50;83.80;;;;;;4978312;28;20450;-73
2022/11/25 05:30:27;;;;;;;0.60;0.60;;;5.50;83.80;;;;;;4978763;28;20446;-73
2022/11/25 05:32:53;;;;;;;0.60;0.60;;;5.50;84.80;;;;;;4978265;28;20821;-73
2022/11/25 05:35:20;;;;;;;0.60;0.60;;;5.40;85.50;;;;;;4978110;28;20482;-72
2022/11/25 05:37:47;;;;;;;0.67;0.67;;;5.40;85.60;;;;;;4977835;28;20969;-72
2022/11/25 05:40:14;;;;;;;0.67;0.67;;;5.40;85.20;;;;;;4978102;28;20453;-72
2022/11/25 05:42:42;;;;;;;0.63;0.63;;;5.30;84.90;;;;;;4977977;28;20476;-72
2022/11/25 05:45:10;;;;;;;0.70;0.70;;;5.30;84.60;;;;;;4977959;28;20502;-72
2022/11/25 05:47:36;;;;;;;0.70;0.70;;;5.20;84.10;;;;;;4977630;28;20820;-72
2022/11/25 05:50:03;;;;;;;1.00;1.00;;;5.10;84.00;;;;;;4977902;28;20450;-72
2022/11/25 05:52:30;;;;;;;0.70;0.70;;;5.10;83.90;;;;;;4977780;28;20478;-72
2022/11/25 05:54:57;;;;;;;0.70;0.70;;;5.20;83.70;;;;;;4978594;28;20486;-72
2022/11/25 05:57:23;;;;;;;0.70;0.70;;;5.20;83.50;;;;;;4977788;28;20446;-72
2022/11/25 05:59:51;;;;;;;0.67;0.67;;;5.20;83.30;;;;;;4977750;28;20453;-72
2022/11/25 06:02:18;;;;;;;0.80;0.80;;;5.20;84.40;;;;;;4977199;28;20851;-72
2022/11/25 06:04:45;;;;;;;0.60;0.60;;;5.10;85.80;;;;;;4977682;28;20446;-72
2022/11/25 06:07:11;;;;;;;0.70;0.70;;;5.10;87.60;;;;;;4977608;28;20462;-72
2022/11/25 06:09:38;;;;;;;0.70;0.70;;;5.10;88.30;;;;;;4977583;28;20789;-72
2022/11/25 06:12:05;;;;;;;0.90;0.90;;;5.20;88.60;;;;;;4977459;28;20470;-71
2022/11/25 06:14:32;;;;;;;0.80;0.80;;;5.30;88.40;;;;;;4977404;28;20569;-72
2022/11/25 06:17:00;;;;;;;0.70;0.70;;;5.40;88.50;;;;;;4977432;28;20481;-72
2022/11/25 06:19:27;;;;;;;0.80;0.70;;;5.40;88.30;;;;;;4977415;28;20454;-73
2022/11/25 06:21:53;;;;;;;0.70;0.70;;;5.50;88.30;;;;;;4977306;28;20466;-72
2022/11/25 06:24:20;;;;;;;0.80;0.80;;;5.60;88.20;;;;;;4977326;28;20476;-73
2022/11/25 06:26:47;;;;;;;0.90;0.90;;;5.60;87.60;;;;;;4976954;28;21004;-73
2022/11/25 06:29:14;;;;;;;1.07;0.90;;;5.60;87.30;;;;;;4976314;28;21022;-73
2022/11/25 06:31:41;;;;;;;0.90;0.90;;;5.70;86.80;;;;;;4977131;28;20470;-73
2022/11/25 06:34:09;;;;;;;0.80;0.80;;;5.60;86.70;;;;;;4977078;28;20474;-73
2022/11/25 06:36:36;;;;;;;0.70;0.70;;;5.60;87.10;;;;;;4977088;28;20457;-71
2022/11/25 06:39:03;;;;;;;0.70;0.70;;;5.70;91.20;;;;;;4977051;28;20457;-72
2022/11/25 06:41:29;;;;;;;0.60;0.60;;;5.70;90.30;;;;;;4976951;28;20474;-72
2022/11/25 06:43:56;;;;;;;0.70;0.70;;;5.60;88.90;;;;;;4976948;28;20453;-73
2022/11/25 06:46:23;;;;;;;0.80;0.80;;;5.60;88.80;;;;;;4976609;28;20824;-73
2022/11/25 06:48:50;;;;;;;0.70;0.70;;;5.50;88.40;;;;;;4976868;28;20450;-73
2022/11/25 06:51:18;;;;;;;0.80;0.80;;;5.50;88.80;;;;;;4976383;28;20473;-73
2022/11/25 06:53:45;;;;;;;0.70;0.70;;;5.40;89.20;;;;;;4976796;28;20454;-73
2022/11/25 06:56:16;;;;;;;0.60;0.60;;;5.50;89.30;;;;;;4976700;28;20497;-73
2022/11/25 06:58:43;;;;;;;0.93;0.90;;;5.50;89.20;;;;;;4976698;28;20431;-73
2022/11/25 07:01:13;;;;;;;0.80;0.77;;;5.50;89.40;;;;;;4976201;28;21010;-73
2022/11/25 07:03:41;;;;;;;0.70;0.70;;;5.60;89.40;;;;;;4976604;28;20442;-73
2022/11/25 07:06:08;;;;;;;0.60;0.60;;;5.70;89.20;;;;;;4976167;28;20451;-73
2022/11/25 07:08:36;;;;;;;1.33;0.83;;;5.70;88.70;;;;;;4976232;28;20548;-73
2022/11/25 07:11:04;;;;;;;0.70;0.70;;;5.80;88.70;;;;;;4976407;28;20466;-73
2022/11/25 07:13:31;;;;;;;0.60;0.60;;;5.70;88.30;;;;;;4976513;28;20450;-74
2022/11/25 07:16:00;;;;;;;0.60;0.60;;;5.70;88.40;;;;;;4975916;28;21033;-72
2022/11/25 07:18:29;;;;;;;0.70;0.70;;;5.70;88.60;;;;;;4976276;28;20458;-72
2022/11/25 07:20:56;;;;;;;0.73;0.73;;;5.80;88.80;;;;;;4976233;28;20474;-72
2022/11/25 07:23:23;;;;;;;0.60;0.60;;;6.00;88.60;;;;;;4975889;28;20935;-72
2022/11/25 07:25:51;;;;;;;0.67;0.67;;;6.00;88.00;;;;;;4976180;28;20469;-72
2022/11/25 07:28:17;;;;;;;0.60;0.60;;;6.00;88.00;;;;;;4976047;28;20446;-70
2022/11/25 07:30:44;;;;;;;0.60;0.60;;;6.10;88.00;;;;;;4975983;28;20517;-72
2022/11/25 07:33:11;;;;;;;0.63;0.63;;;6.10;87.70;;;;;;4976049;28;20446;-72
2022/11/25 07:35:37;;;;;;;0.70;0.70;;;6.20;87.80;;;;;;4975546;28;20482;-73
2022/11/25 07:38:04;;;;;;;0.70;0.70;;;6.20;87.90;;;;;;4975825;28;20450;-73
2022/11/25 07:40:31;;;;;;;0.60;0.60;;;6.30;87.60;;;;;;4974949;28;20482;-73
2022/11/25 07:42:59;;;;;;;0.60;0.60;;;6.30;87.60;;;;;;4975502;28;20458;-73
2022/11/25 07:45:25;;;;;;;0.50;0.50;;;6.30;87.40;;;;;;4975817;28;20469;-73
2022/11/25 07:47:52;;;;;;;0.60;0.60;;;6.40;87.10;;;;;;4975753;28;20466;-72
2022/11/25 07:50:20;;;;;;;0.63;0.63;;;6.50;86.90;;;;;;4975770;28;20473;-73
2022/11/25 07:52:47;;;;;;;1.10;0.80;;;6.50;86.90;;;;;;4975265;28;21048;-72
2022/11/25 07:55:13;;;;;;;0.60;0.60;;;6.50;86.80;;;;;;4975566;28;20485;-72
2022/11/25 07:57:40;;;;;;;0.60;0.60;;;6.60;87.20;;;;;;4975522;28;20446;-72
2022/11/25 08:00:10;;;;;;;0.50;0.50;;;6.70;86.70;;;;;;4975481;28;20490;-72
2022/11/25 08:02:36;;;;;;;0.50;0.50;;;6.90;85.80;;;;;;4975126;28;20859;-71
2022/11/25 08:05:03;;;;;;;0.70;0.70;;;6.90;85.20;;;;;;4975438;28;20453;-72
2022/11/25 08:07:30;;;;;;;0.70;0.70;;;6.90;85.60;;;;;;4975054;28;20945;-72
2022/11/25 08:09:56;;;;;;;0.60;0.60;;;7.00;86.00;;;;;;4975369;28;20813;-73
2022/11/25 08:12:23;;;;;;;0.60;0.60;;;7.10;86.30;;;;;;4975242;28;20470;-73
2022/11/25 08:14:50;;;;;;;0.70;0.70;;;7.10;85.20;;;;;;4975178;28;20496;-72
2022/11/25 08:17:18;;;;;;;0.60;0.60;;;7.10;85.30;;;;;;4974944;28;20446;-73
2022/11/25 08:19:44;;;;;;;0.63;0.63;;;7.10;85.30;;;;;;4975211;28;20450;-72
2022/11/25 08:22:11;;;;;;;0.70;0.70;;;7.10;85.40;;;;;;4975092;28;20477;-72
2022/11/25 08:24:38;;;;;;;0.60;0.60;;;7.20;85.40;;;;;;4974755;28;20453;-72
2022/11/25 08:27:05;;;;;;;0.60;0.60;;;7.20;85.30;;;;;;4974992;28;20454;-72
2022/11/25 08:29:31;;;;;;;0.67;0.67;;;7.20;85.30;;;;;;4974734;28;20827;-73
2022/11/25 08:31:58;;;;;;;0.60;0.60;;;7.20;85.20;;;;;;4974603;28;20466;-73
2022/11/25 08:34:26;;;;;;;0.60;0.60;;;7.30;85.30;;;;;;4974963;28;20525;-73
2022/11/25 08:36:53;;;;;;;0.60;0.60;;;7.40;85.20;;;;;;4974848;28;20493;-73
2022/11/25 08:39:21;;;;;;;0.73;0.70;;;7.50;84.90;;;;;;4974873;28;20450;-73
2022/11/25 08:41:48;;;;;;;0.80;0.70;;;7.50;85.00;;;;;;4974784;28;20470;-73
2022/11/25 08:44:15;;;;;;;0.60;0.60;;;7.50;84.90;;;;;;4974807;28;20451;-73
2022/11/25 08:46:42;;;;;;;0.70;0.70;;;7.50;84.90;;;;;;4975076;28;20446;-74
2022/11/25 08:49:15;;;;;;;0.70;0.70;;;7.40;84.60;;;;;;4974572;28;20997;-75
2022/11/25 08:51:43;;;;;;;0.60;0.60;;;7.50;84.80;;;;;;4974085;28;20481;-74
2022/11/25 08:54:10;;;;;;;0.70;0.70;;;7.40;84.80;;;;;;4974406;28;20450;-74
2022/11/25 08:56:37;;;;;;;0.67;0.67;;;7.40;84.80;;;;;;4974867;28;20488;-74
2022/11/25 08:59:04;;;;;;;0.70;0.70;;;7.40;84.60;;;;;;4975187;28;20454;-74
2022/11/25 09:01:31;;;;;;;0.70;0.70;;;7.50;85.50;;;;;;4974337;28;20486;-73
2022/11/25 09:03:58;;;;;;;0.60;0.60;;;7.60;84.90;;;;;;4974614;28;20446;-74
2022/11/25 09:06:26;;;;;;;0.70;0.70;;;7.90;85.20;;;;;;4974561;28;20454;-74
2022/11/25 09:08:57;;;;;;;0.77;0.77;;;8.00;85.10;;;;;;4974609;28;20454;-76
2022/11/25 09:11:25;;;;;;;0.70;0.70;;;8.20;83.70;;;;;;4974772;28;20481;-75
2022/11/25 09:13:52;;;;;;;0.60;0.60;;;8.40;83.20;;;;;;4975347;28;20450;-74
2022/11/25 09:16:19;;;;;;;0.70;0.70;;;8.50;82.80;;;;;;4975646;28;20477;-75
2022/11/25 09:18:46;;;;;;;0.60;0.60;;;8.50;82.20;;;;;;4975515;28;20450;-75
2022/11/25 09:21:16;;;;;;;0.70;0.70;;;8.40;81.80;;;;;;4975170;28;20473;-75
2022/11/25 09:23:43;;;;;;;0.83;0.83;;;8.30;82.00;;;;;;4975175;28;20490;-75
2022/11/25 09:26:20;;;;;;;0.70;0.70;;;8.30;82.60;;;;;;4974788;28;20442;-75
2022/11/25 09:28:46;;;;;;;0.90;0.90;;;8.30;82.70;;;;;;4974830;28;20436;-73
2022/11/25 09:31:13;;;;;;;0.83;0.83;;;8.30;83.20;;;;;;4974448;28;20982;-74
2022/11/25 09:33:40;;;;;;;0.90;0.90;;;8.30;82.70;;;;;;4975589;28;20446;-75
2022/11/25 09:36:07;;;;;;;0.60;0.60;;;8.40;83.20;;;;;;4975304;28;20851;-76
2022/11/25 09:38:34;;;;;;;0.60;0.60;;;8.60;83.10;;;;;;4974824;28;20791;-72
2022/11/25 09:41:04;;;;;;;0.70;0.70;;;8.70;82.20;;;;;;4974479;28;20533;-75
2022/11/25 09:46:42;;;;;;;0.60;0.60;;;8.90;82.10;;;;;;4974494;28;20414;-75
2022/11/25 09:49:20;;;;;;;0.60;0.60;;;9.10;82.20;;;;;;4974799;28;20442;-76
2022/11/25 09:51:58;;;;;;;0.73;0.73;;;9.20;81.50;;;;;;4974449;28;20466;-75
2022/11/25 09:54:31;;;;;;;0.80;0.80;;;9.20;81.20;;;;;;4974810;28;20445;-75
2022/11/25 09:57:04;;;;;;;0.70;0.70;;;9.30;82.00;;;;;;4974716;28;20470;-75
2022/11/25 09:59:41;;;;;;;0.70;0.70;;;9.30;81.50;;;;;;4974374;28;20956;-76
2022/11/25 10:02:16;;;;;;;0.70;0.70;;;9.40;82.50;;;;;;4974453;28;20489;-75
2022/11/25 10:04:47;;;;;;;0.70;0.70;;;9.50;81.30;;;;;;4977398;28;20445;-75
2022/11/25 10:07:20;;;;;;;0.80;0.80;;;9.40;81.70;;;;;;4978072;28;20434;-75
2022/11/25 10:09:47;;;;;;;0.70;0.70;;;9.40;82.30;;;;;;4978207;28;20445;-75
2022/11/25 10:12:24;;;;;;;0.60;0.60;;;9.40;81.80;;;;;;4977806;28;20973;-75
2022/11/25 10:14:58;;;;;;;0.70;0.70;;;9.30;81.90;;;;;;4977884;28;20434;-75
2022/11/25 10:17:33;;;;;;;0.80;0.80;;;9.40;81.00;;;;;;4978538;28;20438;-75
2022/11/25 10:20:05;;;;;;;0.70;0.70;;;9.50;81.10;;;;;;4977746;28;20438;-75
2022/11/25 10:22:34;;;;;;;0.60;0.60;;;9.30;80.70;;;;;;4977481;28;20470;-75
2022/11/25 10:25:06;;;;;;;0.60;0.60;;;9.40;82.20;;;;;;4977691;28;20457;-76
2022/11/25 10:27:42;;;;;;;0.60;0.60;;;9.60;80.80;;;;;;4977074;28;20443;-75
2022/11/25 10:30:17;;;;;;;0.70;0.70;;;9.90;80.40;;;;;;4978701;28;20431;-75
2022/11/25 10:32:48;;;;;;;0.70;0.70;;;10.10;80.60;;;;;;4977878;28;20992;-75
2022/11/25 10:35:24;;;;;;;0.60;0.60;;;10.00;79.30;;;;;;4978064;28;20442;-75
2022/11/25 10:37:54;;;;;;;0.80;0.80;;;10.10;80.30;;;;;;4977912;28;20438;-76
2022/11/25 10:40:21;;;;;;;0.70;0.70;;;10.30;80.10;;;;;;4977779;28;20450;-75
2022/11/25 10:42:48;;;;;;;0.60;0.60;;;10.30;79.20;;;;;;4977308;28;20474;-74
2022/11/25 10:45:16;;;;;;;0.80;0.80;;;10.40;78.90;;;;;;4977979;28;20446;-75
2022/11/25 10:48:19;;;;;;;0.70;0.70;;;10.50;78.50;;;;;;4977404;28;20453;-75
2022/11/25 10:51:02;;;;;;;0.67;0.67;;;10.50;77.70;;;;;;4976604;28;20485;-76
2022/11/25 10:53:29;;;;;;;0.73;0.73;;;10.30;78.40;;;;;;4977208;28;20434;-75
2022/11/25 10:55:59;;;;;;;0.70;0.70;;;10.30;79.30;;;;;;4977075;28;20493;-75
2022/11/25 10:58:29;;;;;;;0.60;0.60;;;10.50;79.70;;;;;;4977139;28;20446;-75
2022/11/25 11:01:07;;;;;;;0.70;0.70;;;10.40;78.80;;;;;;4976638;28;20493;-76
2022/11/25 11:03:34;;;;;;;0.60;0.60;;;10.30;78.90;;;;;;4976632;28;20956;-74
2022/11/25 11:06:01;;;;;;;0.70;0.70;;;10.30;79.70;;;;;;4977117;28;20449;-75
2022/11/25 11:08:37;;;;;;;0.60;0.60;;;10.30;80.10;;;;;;4976664;28;20846;-75
2022/11/25 11:11:17;;;;;;;0.60;0.60;;;10.30;79.60;;;;;;4976834;28;20466;-75
2022/11/25 11:13:45;;;;;;;0.50;0.50;;;10.30;79.90;;;;;;4976694;28;20434;-75
2022/11/25 11:16:27;;;;;;;0.60;0.60;;;10.10;80.70;;;;;;4976963;28;20482;-74
2022/11/25 11:18:55;;;;;;;0.60;0.60;;;10.00;81.60;;;;;;4976872;28;20431;-74
2022/11/25 11:21:24;;;;;;;0.80;0.80;;;10.00;81.00;;;;;;4976293;28;20474;-75
2022/11/25 11:23:53;;;;;;;0.60;0.60;;;10.00;81.30;;;;;;4976795;28;20455;-75
2022/11/25 11:26:23;;;;;;;0.63;0.60;;;9.90;81.80;;;;;;4977041;28;20458;-76
2022/11/25 11:28:58;;;;;;;0.60;0.60;;;9.90;81.90;;;;;;4976477;28;20946;-76
2022/11/25 11:31:31;;;;;;;0.70;0.70;;;10.00;81.90;;;;;;4976526;28;20480;-76
2022/11/25 11:34:20;;;;;;;0.60;0.60;;;10.10;82.00;;;;;;4976502;28;20434;-75
2022/11/25 11:37:02;;;;;;;0.60;0.60;;;10.20;81.90;;;;;;4976249;28;20470;-75
2022/11/25 11:39:48;;;;;;;0.60;0.60;;;10.20;81.40;;;;;;4976104;28;20449;-75
2022/11/25 11:42:29;;;;;;;0.70;0.70;;;10.20;82.00;;;;;;4975999;28;20473;-76
2022/11/25 11:45:08;;;;;;;0.60;0.60;;;10.20;81.60;;;;;;4976077;28;20449;-75
2022/11/25 11:47:46;;;;;;;0.60;0.60;;;10.30;81.70;;;;;;4976264;28;20787;-74
2022/11/25 11:50:26;;;;;;;0.67;0.67;;;10.20;81.50;;;;;;4976032;28;20442;-76
2022/11/25 11:52:59;;;;;;;0.60;0.60;;;10.20;81.90;;;;;;4976197;28;20477;-75
2022/11/25 11:55:40;;;;;;;0.70;0.70;;;10.30;81.90;;;;;;4976675;28;20446;-75
2022/11/25 11:58:17;;;;;;;0.70;0.70;;;10.20;82.60;;;;;;4976134;28;20454;-75
2022/11/25 12:00:52;;;;;;;0.50;0.50;;;10.00;83.70;;;;;;4976065;28;20521;-75
2022/11/25 12:03:23;;;;;;;0.70;0.70;;;9.90;84.50;;;;;;4976051;28;20430;-76
2022/11/25 12:05:53;;;;;;;0.60;0.60;;;9.80;85.10;;;;;;4976000;28;20438;-76
2022/11/25 12:08:27;;;;;;;0.60;0.60;;;9.90;86.00;;;;;;4975886;28;20833;-75
2022/11/25 12:10:57;;;;;;;0.70;0.70;;;10.00;85.90;;;;;;4975697;28;20843;-75
2022/11/25 12:13:32;;;;;;;0.60;0.60;;;10.00;85.90;;;;;;4975392;28;20433;-73
2022/11/25 12:16:06;;;;;;;0.60;0.60;;;10.00;86.00;;;;;;4975705;28;20556;-75
2022/11/25 12:18:43;;;;;;;0.50;0.50;;;10.20;86.00;;;;;;4975815;28;20438;-76
2022/11/25 12:21:18;;;;;;;0.70;0.70;;;10.30;85.60;;;;;;4975773;28;20539;-74
2022/11/25 12:23:53;;;;;;;0.60;0.60;;;10.30;85.20;;;;;;4975717;28;20438;-75
2022/11/25 12:26:25;;;;;;;0.70;0.70;;;10.40;85.10;;;;;;4975356;28;20449;-75
2022/11/25 12:28:56;;;;;;;0.70;0.70;;;10.60;84.80;;;;;;4975385;28;20482;-75
2022/11/25 12:31:26;;;;;;;0.67;0.67;;;10.70;84.60;;;;;;4974835;28;21000;-75
2022/11/25 12:34:01;;;;;;;0.70;0.70;;;10.70;84.30;;;;;;4975436;28;20434;-75
2022/11/25 12:36:33;;;;;;;0.67;0.67;;;10.80;84.00;;;;;;4975296;28;20481;-76
2022/11/25 12:39:04;;;;;;;0.60;0.60;;;10.90;83.90;;;;;;4975528;28;20447;-75
2022/11/25 12:41:39;;;;;;;0.60;0.60;;;10.90;83.60;;;;;;4975232;28;21033;-75
2022/11/25 12:44:13;;;;;;;0.60;0.60;;;11.00;83.40;;;;;;4975580;28;20438;-75
2022/11/25 12:46:44;;;;;;;1.00;0.60;;;11.00;83.30;;;;;;4975576;28;20435;-75
2022/11/25 12:49:18;;;;;;;0.70;0.70;;;11.00;83.00;;;;;;4975617;28;20570;-75
2022/11/25 12:52:11;;;;;;;0.70;0.70;;;11.00;83.40;;;;;;4975386;28;20462;-74
2022/11/25 12:54:59;;;;;;;0.70;0.70;;;11.00;83.30;;;;;;4974914;28;20942;-75
2022/11/25 12:57:57;;;;;;;0.60;0.60;;;11.10;83.30;;;;;;4975217;28;20470;-75
2022/11/25 13:00:27;;;;;;;0.63;0.63;;;11.20;83.10;;;;;;4975322;28;20458;-75
2022/11/25 13:03:25;;;;;;;1.30;1.00;;;11.10;83.30;;;;;;4974841;28;20464;-76
2022/11/25 13:06:18;;;;;;;0.70;0.70;;;11.10;83.20;;;;;;4975053;28;20434;-75
2022/11/25 13:08:56;;;;;;;0.63;0.63;;;11.10;83.30;;;;;;4975351;28;20445;-75
2022/11/25 13:11:53;;;;;;;0.60;0.60;;;11.00;83.30;;;;;;4975080;28;20477;-75
2022/11/25 13:14:27;;;;;;;0.70;0.70;;;10.90;83.40;;;;;;4975297;28;20430;-75
2022/11/25 13:16:55;;;;;;;0.70;0.70;;;10.90;83.40;;;;;;4974826;28;20482;-76
2022/11/25 13:19:23;;;;;;;0.77;0.77;;;10.80;83.40;;;;;;4974451;28;20466;-75
2022/11/25 13:21:59;;;;;;;0.70;0.70;;;10.80;83.90;;;;;;4974381;28;20462;-75
2022/11/25 13:24:31;;;;;;;0.70;0.70;;;10.90;83.40;;;;;;4975590;28;20446;-76
2022/11/25 13:27:00;;;;;;;0.70;0.70;;;10.80;83.30;;;;;;4981629;28;20435;-77
2022/11/25 13:30:04;;;;;;;0.70;0.70;;;10.80;83.50;;;;;;4981329;28;20481;-75
2022/11/25 13:32:40;;;;;;;0.70;0.70;;;10.70;83.30;;;;;;4982864;28;20465;-75
2022/11/25 13:35:36;;;;;;;0.60;0.60;;;10.70;83.90;;;;;;4982130;28;20438;-74
2022/11/25 13:38:27;;;;;;;0.70;0.70;;;10.70;84.00;;;;;;4983538;28;20470;-74
2022/11/25 13:40:58;;;;;;;0.70;0.70;;;10.70;83.50;;;;;;4978972;28;20473;-75
2022/11/25 13:43:25;;;;;;;0.70;0.70;;;10.60;83.40;;;;;;4978040;28;20449;-75
2022/11/25 13:45:52;;;;;;;0.60;0.60;;;10.70;84.20;;;;;;4977939;28;20446;-75
2022/11/25 13:48:22;;;;;;;0.80;0.80;;;10.90;83.60;;;;;;4977896;28;20442;-75
2022/11/25 13:50:50;;;;;;;0.60;0.60;;;11.10;83.30;;;;;;4977471;28;20849;-75
2022/11/25 13:53:26;;;;;;;0.70;0.70;;;11.20;82.60;;;;;;4977887;28;20541;-75
2022/11/25 13:56:12;;;;;;;0.60;0.60;;;11.30;82.40;;;;;;4977662;28;20449;-75
2022/11/25 13:58:38;;;;;;;0.70;0.70;;;11.70;83.40;;;;;;4977737;28;20450;-75
2022/11/25 14:01:22;;;;;;;0.70;0.70;;;13.00;79.60;;;;;;4977412;28;20492;-75
2022/11/25 14:03:59;;;;;;;0.60;0.60;;;13.90;74.00;;;;;;4976789;28;20454;-76
2022/11/25 14:06:42;;;;;;;0.70;0.70;;;13.80;73.60;;;;;;4977968;28;20434;-76
2022/11/25 14:09:23;;;;;;;0.60;0.60;;;13.70;73.60;;;;;;4978083;28;20438;-76
2022/11/25 14:12:09;;;;;;;0.70;0.70;;;13.20;74.00;;;;;;4978023;28;20469;-76
2022/11/25 14:14:49;;;;;;;0.70;0.70;;;12.80;75.10;;;;;;4978117;28;20431;-75
2022/11/25 14:17:29;;;;;;;0.70;0.70;;;12.60;76.00;;;;;;4977890;28;20470;-76
2022/11/25 14:20:16;;;;;;;0.70;0.70;;;12.40;77.20;;;;;;4980238;28;20438;-76
2022/11/25 14:23:07;;;;;;;0.60;0.60;;;12.40;75.90;;;;;;4981236;28;20470;-75
2022/11/25 14:25:48;;;;;;;0.60;0.60;;;12.30;75.20;;;;;;4982452;28;20905;-75
2022/11/25 14:28:24;;;;;;;0.60;0.60;;;12.00;74.90;;;;;;4980583;28;20485;-75
2022/11/25 14:30:54;;;;;;;0.90;0.67;;;11.70;74.80;;;;;;4981186;28;20493;-75
2022/11/25 14:33:26;;;;;;;0.67;0.67;;;11.50;75.10;;;;;;4980358;28;20449;-75
2022/11/25 14:35:58;;;;;;;0.60;0.60;;;11.40;75.80;;;;;;4978343;28;20915;-75
2022/11/25 14:38:32;;;;;;;0.60;0.60;;;11.40;75.70;;;;;;4977453;28;20470;-75
2022/11/25 14:41:06;;;;;;;0.80;0.80;;;11.20;76.00;;;;;;4977371;28;20478;-75
2022/11/25 14:43:41;;;;;;;0.70;0.70;;;11.10;76.00;;;;;;4977165;28;20440;-76
2022/11/25 14:46:15;;;;;;;0.80;0.80;;;10.90;75.90;;;;;;4976862;28;20438;-75
2022/11/25 14:48:42;;;;;;;0.77;0.77;;;10.80;75.60;;;;;;4976710;28;20431;-75
2022/11/25 14:51:12;;;;;;;1.57;0.73;;;10.70;76.00;;;;;;4976466;28;20470;-75
2022/11/25 14:53:41;;;;;;;0.70;0.70;;;10.60;76.20;;;;;;4976950;28;20461;-75
2022/11/25 14:56:10;;;;;;;0.60;0.60;;;10.40;76.10;;;;;;4976763;28;20450;-74
2022/11/25 14:58:40;;;;;;;0.80;0.80;;;10.30;76.70;;;;;;4976789;28;20485;-74
2022/11/25 15:01:18;;;;;;;0.67;0.67;;;10.20;76.80;;;;;;4976358;28;20958;-75
2022/11/25 15:03:47;;;;;;;0.70;0.70;;;10.20;76.90;;;;;;4976585;28;20438;-74
2022/11/25 15:06:15;;;;;;;0.70;0.70;;;10.20;76.80;;;;;;4976539;28;20455;-74
2022/11/25 15:08:44;;;;;;;0.73;0.73;;;10.20;76.50;;;;;;4978546;28;20449;-75
2022/11/25 15:11:14;;;;;;;0.70;0.70;;;10.20;76.40;;;;;;4982341;28;20473;-75
2022/11/25 15:13:43;;;;;;;0.60;0.60;;;10.20;76.70;;;;;;4983596;28;20438;-75
2022/11/25 15:16:14;;;;;;;0.87;0.87;;;10.30;76.10;;;;;;4983502;28;20818;-76
2022/11/25 15:18:48;;;;;;;0.60;0.60;;;10.30;76.00;;;;;;4984400;28;20474;-76
2022/11/25 15:21:17;;;;;;;1.63;0.70;;;10.30;76.10;;;;;;4984074;28;20479;-76
2022/11/25 15:23:44;;;;;;;0.70;0.70;;;10.30;76.60;;;;;;4982742;28;20469;-75
2022/11/25 15:26:19;;;;;;;0.90;0.90;;;10.40;76.30;;;;;;4982865;28;20473;-77
2022/11/25 15:28:47;;;;;;;0.80;0.80;;;10.30;75.90;;;;;;4982791;28;20989;-75
2022/11/25 15:31:18;;;;;;;0.80;0.80;;;10.30;76.60;;;;;;4983359;28;20479;-76
2022/11/25 15:33:46;;;;;;;0.73;0.73;;;10.40;76.40;;;;;;4982091;28;20442;-76
2022/11/25 15:36:13;;;;;;;0.93;0.93;;;10.30;77.10;;;;;;4983975;28;20457;-79
2022/11/25 15:38:42;;;;;;;0.70;0.70;;;10.30;77.20;;;;;;4986283;28;20482;-76
2022/11/25 15:41:30;;;;;;;0.87;0.80;;;10.40;77.00;;;;;;4983377;28;20554;-77
2022/11/25 15:44:01;;;;;;;0.80;0.80;;;10.40;76.80;;;;;;4983929;28;20445;-76
2022/11/25 15:46:29;;;;;;;0.60;0.60;;;10.40;76.70;;;;;;4984901;28;20489;-78
2022/11/25 15:48:58;;;;;;;0.60;0.60;;;10.40;76.70;;;;;;4987095;28;20450;-79
2022/11/25 15:51:36;;;;;;;0.70;0.70;;;10.40;76.60;;;;;;4984762;28;20920;-77
2022/11/25 15:54:07;;;;;;;1.27;0.80;;;10.40;76.70;;;;;;4982403;28;20473;-77
2022/11/25 15:56:38;;;;;;;0.80;0.80;;;10.40;76.80;;;;;;4981936;28;20437;-75
2022/11/25 15:59:05;;;;;;;0.80;0.80;;;10.40;77.10;;;;;;4982472;28;20522;-77
2022/11/25 16:01:33;;;;;;;0.70;0.70;;;10.40;77.30;;;;;;4982012;28;20490;-78
2022/11/25 16:04:16;;;;;;;0.90;0.90;;;10.30;77.40;;;;;;4981944;28;20477;-77
2022/11/25 16:06:54;;;;;;;0.70;0.70;;;10.30;77.60;;;;;;4981712;28;20453;-77
2022/11/25 16:09:24;;;;;;;0.80;0.80;;;10.20;77.60;;;;;;4982211;28;20782;-76
2022/11/25 16:11:52;;;;;;;1.07;0.87;;;10.20;77.70;;;;;;4980724;28;20513;-76
2022/11/25 16:14:24;;;;;;;0.67;0.60;;;10.20;77.90;;;;;;4981051;28;20960;-76
2022/11/25 16:16:51;;;;;;;0.70;0.70;;;10.10;78.00;;;;;;4982414;28;20422;-77
2022/11/25 16:19:20;;;;;;;0.70;0.70;;;10.10;78.00;;;;;;4979466;28;20465;-76
2022/11/25 16:21:53;;;;;;;0.80;0.80;;;10.00;78.20;;;;;;4975512;28;20505;-76
2022/11/25 16:24:39;;;;;;;0.70;0.70;;;9.90;78.40;;;;;;4974892;28;20435;-76
2022/11/25 16:27:19;;;;;;;0.70;0.70;;;9.80;78.60;;;;;;4975164;28;20430;-77
2022/11/25 16:29:52;;;;;;;0.80;0.80;;;9.60;79.20;;;;;;4975131;28;20434;-77
2022/11/25 16:32:21;;;;;;;0.80;0.80;;;9.60;79.70;;;;;;4974984;28;20474;-76
2022/11/25 16:34:48;;;;;;;1.00;1.00;;;9.50;80.30;;;;;;4974968;28;20501;-77
2022/11/25 16:37:15;;;;;;;1.50;1.40;;;9.50;80.60;;;;;;4974837;28;20497;-77
2022/11/25 16:39:42;;;;;;;0.90;0.90;;;9.40;80.80;;;;;;4974640;28;20929;-77
2022/11/25 16:42:17;;;;;;;1.17;0.97;;;9.30;81.30;;;;;;4974788;28;20493;-77
2022/11/25 16:44:48;;;;;;;0.90;0.90;;;9.30;81.60;;;;;;4976342;28;20497;-76
2022/11/25 16:47:15;;;;;;;0.83;0.83;;;9.30;81.90;;;;;;4981675;28;20451;-76
2022/11/25 16:49:42;;;;;;;0.63;0.63;;;9.30;82.30;;;;;;4982294;28;20541;-77
2022/11/25 16:52:09;;;;;;;1.00;1.00;;;9.30;82.10;;;;;;4981758;28;20478;-77
2022/11/25 16:54:36;;;;;;;0.90;0.90;;;9.30;82.30;;;;;;4975986;28;20458;-75
2022/11/25 16:57:04;;;;;;;1.13;0.90;;;9.40;82.30;;;;;;4978640;28;20462;-75
2022/11/25 16:59:36;;;;;;;1.00;1.00;;;9.50;82.00;;;;;;4981797;28;20450;-76
2022/11/25 17:02:04;;;;;;;0.70;0.70;;;9.50;81.60;;;;;;4980459;28;20994;-76
2022/11/25 17:04:31;;;;;;;1.10;1.10;;;9.60;81.30;;;;;;4980206;28;20478;-76
2022/11/25 17:06:57;;;;;;;1.30;1.30;;;9.60;81.10;;;;;;4982120;28;20465;-76
2022/11/25 17:09:24;;;;;;;1.50;1.50;;;9.70;81.10;;;;;;4981719;28;20457;-77
2022/11/25 17:11:54;;;;;;;0.93;0.93;;;9.70;81.00;;;;;;4978207;28;20471;-74
2022/11/25 17:14:27;;;;;;;0.70;0.70;;;9.70;80.80;;;;;;4985080;28;20458;-74
2022/11/25 17:16:55;;;;;;;1.00;0.90;;;9.70;80.90;;;;;;4985591;28;20430;-74
2022/11/25 17:19:22;;;;;;;1.23;0.90;;;9.70;81.10;;;;;;4985929;28;20863;-74